Flight Track Log - Related Links

Times and Time Zones

All times are in EDT time to prevent confusion due to time zone crossing. See the UAL1614 flight status page for this flight to view local times or setup timezone preferences in your user account.


Time Position Orientation Groundspeed Altitude Reporting Facility
EDT Latitude Longitude Course Direction KTS MPH feet Rate Location/Type
Thu 03:51:48 AM 33.9366 -118.4125 263° West 171 197 400  Level FlightAware ADS-B (KCRQ)
Thu 03:52:17 AM 33.9333 -118.4377 241° Southwest 198 228 1,300 1,600 Climbing FlightAware ADS-B (KCRQ)
Thu 03:52:33 AM 33.9227 -118.4549 226° Southwest 212 244 1,600 1,355 Climbing FlightAware ADS-B (KCRQ)
Thu 03:52:48 AM 33.9121 -118.4672 224° Southwest 236 272 2,000 2,400 Climbing FlightAware ADS-B (KCRQ)
Thu 03:53:03 AM 33.8993 -118.4815 222° Southwest 235 270 2,800 2,400 Climbing FlightAware ADS-B (KCRQ)
Thu 03:53:18 AM 33.8859 -118.4959 221° Southwest 252 290 3,200 2,000 Climbing FlightAware ADS-B
Thu 03:53:48 AM 33.8584 -118.5246 221° Southwest 264 304 4,300 2,933 Climbing FlightAware ADS-B (KCRQ)
Thu 03:54:03 AM 33.8445 -118.5396 223° Southwest 248 285 5,400 3,800 Climbing FlightAware ADS-B
Thu 03:54:18 AM 33.8357 -118.5491 222° Southwest 247 284 6,200 2,591 Climbing FlightAware ADS-B (KCRQ)
Thu 03:54:47 AM 33.8069 -118.5801 222° Southwest 258 297 7,300 2,400 Climbing FlightAware ADS-B (KCRQ)
Thu 03:55:03 AM 33.7934 -118.5946 220° Southwest 261 300 8,000 2,323 Climbing FlightAware ADS-B (KCRQ)
Thu 03:55:18 AM 33.7804 -118.6036 195° South 271 312 8,500 2,000 Climbing FlightAware ADS-B (KCRQ)
Thu 03:55:33 AM 33.7581 -118.6049 170° South 280 322 9,000 2,069 Climbing FlightAware ADS-B (KCRQ)
Thu 03:55:47 AM 33.7432 -118.5973 144° Southeast 288 331 9,500 2,483 Climbing FlightAware ADS-B (KCRQ)
Thu 03:56:02 AM 33.7280 -118.5784 124° Southeast 295 339 10,200 2,478 Climbing FlightAware ADS-B (KCRQ)
Thu 03:56:33 AM 33.7037 -118.5346 123° Southeast 305 351 11,400 2,318 Climbing FlightAware ADS-B (KCRQ)
Thu 03:56:46 AM 33.6948 -118.5136 114° Southeast 313 360 11,900 1,800 Climbing FlightAware ADS-B
Thu 03:56:53 AM 33.6910 -118.5024 111° Southeast 317 365 12,000 938 Climbing FlightAware ADS-B
Thu 03:57:18 AM 33.6796 -118.4632 109° East 349 402 12,400 909 Climbing FlightAware ADS-B (KCRQ)
Thu 03:57:26 AM 33.6749 -118.4473 109° East 357 411 12,500 857 Climbing FlightAware ADS-B
Thu 03:57:32 AM 33.6699 -118.4304 109° East 355 409 12,600 800 Climbing FlightAware ADS-B
Thu 03:57:56 AM 33.6580 -118.3901 109° East 387 445 12,900 1,000 Climbing FlightAware ADS-B
Thu 03:58:02 AM 33.6536 -118.3736 106° East 395 455 13,100 2,167 Climbing FlightAware ADS-B (KCRQ)
Thu 03:58:32 AM 33.6446 -118.3104 92° East 405 466 14,200 2,211 Climbing FlightAware ADS-B (KCRQ)
Thu 03:58:40 AM 33.6443 -118.2904 90° East 406 467 14,500 2,333 Climbing FlightAware ADS-B
Thu 03:58:50 AM 33.6441 -118.2655 92° East 408 470 14,900 2,069 Climbing FlightAware ADS-B
Thu 03:59:09 AM 33.6407 -118.2223 97° East 413 475 15,500 2,000 Climbing FlightAware ADS-B
Thu 03:59:20 AM 33.6379 -118.1962 97° East 416 479 15,900 1,800 Climbing FlightAware ADS-B
Thu 03:59:39 AM 33.6334 -118.1538 97° East 422 486 16,400 2,000 Climbing FlightAware ADS-B
Thu 04:00:08 AM 33.6262 -118.0859 97° East 425 489 17,500 2,308 Climbing FlightAware ADS-B
Thu 04:00:18 AM 33.6240 -118.0651 97° East 426 490 17,900 2,129 Climbing FlightAware ADS-B (KCRQ)
Thu 04:00:39 AM 33.6186 -118.0130 97° East 429 494 18,600 2,000 Climbing FlightAware ADS-B
Thu 04:00:54 AM 33.6150 -117.9781 97° East 432 497 19,100 2,000 Climbing FlightAware ADS-B
Thu 04:01:09 AM 33.6112 -117.9410 97° East 435 501 19,600 1,692 Climbing FlightAware ADS-B
Thu 04:01:33 AM 33.6058 -117.8894 97° East 440 506 20,200 1,548 Climbing FlightAware ADS-B (KCRQ)
Thu 04:01:40 AM 33.6035 -117.8679 97° East 441 507 20,400 1,833 Climbing FlightAware ADS-B
Thu 04:02:09 AM 33.5961 -117.7972 97° East 445 512 21,300 2,000 Climbing FlightAware ADS-B
Thu 04:02:10 AM 33.5965 -117.8012 97° East 447 514 21,400 1,600 Climbing FlightAware ADS-B
Thu 04:02:39 AM 33.5880 -117.7219 97° East 452 520 22,100 1,421 Climbing FlightAware ADS-B
Thu 04:02:48 AM 33.5859 -117.7020 97° East 455 524 22,300 1,400 Climbing FlightAware ADS-B (KCRQ)
Thu 04:03:09 AM 33.5801 -117.6472 97° East 459 528 22,800 1,543 Climbing FlightAware ADS-B
Thu 04:03:23 AM 33.5763 -117.6114 97° East 463 533 23,200 1,600 Climbing FlightAware ADS-B
Thu 04:03:39 AM 33.5721 -117.5716 97° East 463 533 23,600 1,400 Climbing FlightAware ADS-B
Thu 04:03:53 AM 33.5688 -117.5413 97° East 465 535 23,900 1,400 Climbing FlightAware ADS-B
Thu 04:04:09 AM 33.5639 -117.4960 97° East 467 537 24,300 1,800 Climbing FlightAware ADS-B
Thu 04:04:13 AM 33.5633 -117.4912 98° East 470 541 24,500 1,200 Climbing FlightAware ADS-B
Thu 04:04:39 AM 33.5551 -117.4162 97° East 473 544 24,900 1,000 Climbing FlightAware ADS-B
Thu 04:04:49 AM 33.5527 -117.3939 98° East 476 548 25,100 1,034 Climbing FlightAware ADS-B (KCRQ)
Thu 04:05:08 AM 33.5469 -117.3412 97° East 480 552 25,400 909 Climbing FlightAware ADS-B
Thu 04:05:22 AM 33.5441 -117.3151 97° East 482 555 25,600 1,161 Climbing FlightAware ADS-B
Thu 04:05:39 AM 33.5382 -117.2612 97° East 485 558 26,000 1,143 Climbing FlightAware ADS-B
Thu 04:05:43 AM 33.5411 -117.2880 97° East 485 558 26,000 1,200 Level FlightAware ADS-B
Thu 04:06:09 AM 33.5290 -117.1793 97° East 489 563 26,600 1,200 Climbing FlightAware ADS-B
Thu 04:06:33 AM 33.5226 -117.1221 98° East 493 567 27,000 828 Climbing FlightAware ADS-B (KCRQ)
Thu 04:06:38 AM 33.5206 -117.1050 97° East 494 568 27,000 1,029 Level FlightAware ADS-B
Thu 04:07:08 AM 33.5108 -117.0179 97° East 497 572 27,600 1,029 Climbing FlightAware ADS-B
Thu 04:07:13 AM 33.5130 -117.0373 97° East 497 572 27,600 1,161 Level FlightAware ADS-B
Thu 04:07:39 AM 33.5022 -116.9408 97° East 499 574 28,200 1,200 Climbing FlightAware ADS-B
Thu 04:07:43 AM 33.5022 -116.9408 97° East 499 574 28,200 857 Level FlightAware ADS-B
Thu 04:07:53 AM 33.4989 -116.9128 97° East 499 574 28,400 1,200 Climbing FlightAware ADS-B
Thu 04:08:13 AM 33.4930 -116.8608 97° East 499 574 28,800 1,400 Climbing FlightAware ADS-B
Thu 04:08:23 AM 33.4888 -116.8231 97° East 499 574 29,100 1,200 Climbing FlightAware ADS-B
Thu 04:08:33 AM 33.4881 -116.8170 97° East 499 574 29,200 900 Climbing FlightAware ADS-B
Thu 04:08:43 AM 33.4835 -116.7773 97° East 499 574 29,400 1,571 Climbing FlightAware ADS-B
Thu 04:09:15 AM 33.4713 -116.6700 98° East 499 574 30,300 1,529 Climbing FlightAware ADS-B (KBNG)
Thu 04:09:34 AM 33.4713 -116.6700 97° East 493 567 30,700 1,448 Climbing FlightAware ADS-B
Thu 04:09:44 AM 33.4651 -116.6150 97° East 492 566 31,000 2,100 Climbing FlightAware ADS-B
Thu 04:09:54 AM 33.4618 -116.5870 97° East 485 558 31,400 2,400 Climbing FlightAware ADS-B
Thu 04:10:04 AM 33.4588 -116.5607 97° East 480 552 31,800 2,100 Climbing FlightAware ADS-B
Thu 04:10:14 AM 33.4561 -116.5375 97° East 477 549 32,100 1,733 Climbing FlightAware ADS-B
Thu 04:10:49 AM 33.4439 -116.4327 98° East 474 545 33,100 1,565 Climbing FlightAware ADS-B (KCRQ)
Thu 04:11:23 AM 33.4323 -116.3353 98° East 469 540 33,900 1,500 Climbing FlightAware ADS-B (KBNG)
Thu 04:11:53 AM 33.4232 -116.2587 98° East 464 534 34,700 1,180 Climbing FlightAware ADS-B (KBNG)
Thu 04:12:24 AM 33.4168 -116.2063 98° East 461 531 35,100 938 Climbing FlightAware ADS-B
Thu 04:12:57 AM 33.4045 -116.1047 98° East 463 533 35,700 930 Climbing FlightAware ADS-B
Thu 04:13:35 AM 33.3977 -116.0489 98° East 462 532 36,200 935 Climbing FlightAware ADS-B (KCRQ)
Thu 04:14:14 AM 33.3804 -115.9062 98° East 458 527 36,900 696 Climbing FlightAware ADS-B (KBNG)
Thu 04:14:44 AM 33.3711 -115.8296 98° East 461 531 37,000 94 Climbing FlightAware ADS-B (KBNG)
Thu 04:15:18 AM 33.3608 -115.7449 98° East 462 532 37,000  Level FlightAware ADS-B (KCRQ)
Thu 04:15:49 AM 33.3514 -115.6681 98° East 461 531 37,000  Level FlightAware ADS-B (KCRQ)
Thu 04:16:23 AM 33.3445 -115.6132 98° East 460 529 37,000  Level FlightAware ADS-B
Thu 04:16:42 AM 33.3417 -115.5903 98° East 459 528 37,000  Level FlightAware ADS-B
Thu 04:17:34 AM 33.3186 -115.4057 99° East 461 531 37,000  Level FlightAware ADS-B (KCRQ)
Thu 04:18:05 AM 33.3090 -115.3302 99° East 461 531 37,000  Level FlightAware ADS-B (KCRQ)
Thu 04:19:04 AM 33.2898 -115.1789 99° East 461 531 37,000  Level FlightAware ADS-B (KCRQ)
Thu 04:19:35 AM 33.2807 -115.1077 99° East 461 531 37,000  Level FlightAware ADS-B (KCRQ)
Thu 04:20:20 AM 33.2666 -114.9988 99° East 463 533 37,000  Level FlightAware ADS-B (KCRQ)
Thu 04:21:35 AM 33.2409 -114.8018 99° East 460 529 37,000  Level FlightAware ADS-B (KCRQ)
Thu 04:22:05 AM 33.2306 -114.7230 99° East 457 526 37,000  Level FlightAware ADS-B (KCRQ)
Thu 04:22:49 AM 33.2159 -114.6116 99° East 457 526 37,000  Level FlightAware ADS-B (KCRQ)
Thu 04:23:34 AM 33.2018 -114.5057 99° East 459 528 37,000  Level FlightAware ADS-B (KCRQ)
Thu 04:24:05 AM 33.1914 -114.4284 99° East 462 532 37,000  Level FlightAware ADS-B (KCRQ)
Thu 04:24:49 AM 33.1757 -114.3116 99° East 462 532 37,000  Level FlightAware ADS-B (KCRQ)
Thu 04:25:20 AM 33.1657 -114.2376 99° East 463 533 37,000  Level FlightAware ADS-B (KCRQ)
Thu 04:26:04 AM 33.1504 -114.1259 99° East 463 533 37,000  Level FlightAware ADS-B (KCRQ)
Thu 04:26:35 AM 33.1426 -114.0697 99° East 464 534 37,000  Level FlightAware ADS-B (KCRQ)
Thu 04:27:34 AM 33.1196 -113.9012 100° East 462 532 37,000  Level FlightAware ADS-B (KCRQ)
Thu 04:28:05 AM 33.1082 -113.8208 100° East 462 532 37,000  Level FlightAware ADS-B (KCRQ)
Thu 04:28:43 AM 33.0968 -113.7398 99° East 460 529 37,000  Level FlightAware ADS-B (KCRQ)
Thu 04:30:53 AM 33.0490 -113.4003 100° East 455 524 37,000  Level FlightAware ADS-B (YBLN / BQB)
Thu 04:31:30 AM 33.0361 -113.3101 100° East 456 525 37,000  Level FlightAware ADS-B (YBLN / BQB)
Thu 04:32:12 AM 33.0211 -113.2063 100° East 456 525 37,000  Level FlightAware ADS-B (YBLN / BQB)
Thu 04:32:47 AM 33.0085 -113.1194 100° East 457 526 37,000  Level FlightAware ADS-B (YBLN / BQB)
Thu 04:33:35 AM 32.9934 -113.0160 100° East 459 528 37,000  Level FlightAware ADS-B (YBLN / BQB)
Thu 04:34:12 AM 32.9778 -112.9095 100° East 459 528 37,000  Level FlightAware ADS-B (YBLN / BQB)
Thu 04:34:54 AM 32.9622 -112.8033 100° East 460 529 37,000  Level FlightAware ADS-B (YBLN / BQB)
Thu 04:35:34 AM 32.9478 -112.7066 100° East 459 528 37,000  Level FlightAware ADS-B
Thu 04:36:08 AM 32.9353 -112.6225 100° East 459 528 37,000  Level FlightAware ADS-B (VRMM / MLE)
Thu 04:36:38 AM 32.9240 -112.5475 100° East 460 529 37,000  Level FlightAware ADS-B (VRMM / MLE)
Thu 04:37:14 AM 32.9115 -112.4643 100° East 459 528 37,000  Level FlightAware ADS-B
Thu 04:37:47 AM 32.8977 -112.3740 100° East 460 529 37,000  Level FlightAware ADS-B (YBLN / BQB)
Thu 04:38:31 AM 32.8809 -112.2647 100° East 458 527 37,000  Level FlightAware ADS-B (YBLN / BQB)
Thu 04:39:09 AM 32.8670 -112.1728 100° East 458 527 37,000  Level FlightAware ADS-B (VRMM / MLE)
Thu 04:39:40 AM 32.8551 -112.0946 100° East 456 525 37,000  Level FlightAware ADS-B (VRMM / MLE)
Thu 04:40:11 AM 32.8436 -112.0200 100° East 455 524 37,000  Level FlightAware ADS-B (VRMM / MLE)
Thu 04:40:34 AM 32.8371 -111.9774 101° East 455 524 37,000  Level FlightAware ADS-B
Thu 04:41:11 AM 32.8209 -111.8737 101° East 454 522 37,000  Level FlightAware ADS-B (VRMM / MLE)
Thu 04:41:41 AM 32.8091 -111.7986 101° East 454 522 37,000  Level FlightAware ADS-B (VRMM / MLE)
Thu 04:42:11 AM 32.7979 -111.7270 100° East 454 522 37,000  Level FlightAware ADS-B (VRMM / MLE)
Thu 04:42:28 AM 32.7916 -111.6864 100° East 454 522 37,000  Level FlightAware ADS-B
Thu 04:43:01 AM 32.7785 -111.6033 101° East 454 522 37,000  Level FlightAware ADS-B (VRMM / MLE)
Thu 04:43:35 AM 32.7656 -111.5216 101° East 453 521 37,000  Level FlightAware ADS-B (YBLN / BQB)
Thu 04:44:11 AM 32.7515 -111.4326 101° East 454 522 37,000  Level FlightAware ADS-B (VRMM / MLE)
Thu 04:44:51 AM 32.7360 -111.3358 101° East 454 522 37,000  Level FlightAware ADS-B (VRMM / MLE)
Thu 04:45:21 AM 32.7240 -111.2612 101° East 455 524 37,000  Level FlightAware ADS-B (VRMM / MLE)
Thu 04:45:52 AM 32.7119 -111.1864 101° East 456 525 37,000  Level FlightAware ADS-B (VRMM / MLE)
Thu 04:46:31 AM 32.6961 -111.0894 101° East 456 525 37,000  Level FlightAware ADS-B (VRMM / MLE)
Thu 04:47:11 AM 32.6802 -110.9919 100° East 456 525 37,000  Level FlightAware ADS-B (VRMM / MLE)
Thu 04:47:33 AM 32.6713 -110.9375 101° East 457 526 37,000  Level FlightAware ADS-B (KMDQ)
Thu 04:48:08 AM 32.6575 -110.8533 101° East 457 526 37,000  Level FlightAware ADS-B
Thu 04:48:33 AM 32.6474 -110.7915 101° East 457 526 37,000  Level FlightAware ADS-B (KMDQ)
Thu 04:49:04 AM 32.6349 -110.7158 101° East 458 527 37,000  Level FlightAware ADS-B
Thu 04:49:42 AM 32.6192 -110.6215 100° East 456 525 37,000  Level FlightAware ADS-B (VRMM / MLE)
Thu 04:49:53 AM 32.6158 -110.6009 101° East 457 526 37,000  Level FlightAware ADS-B (KMDQ)
Thu 04:50:02 AM 32.6108 -110.5709 100° East 454 522 37,000  Level FlightAware ADS-B (VRMM / MLE)
Thu 04:50:35 AM 32.5974 -110.4909 101° East 455 524 37,000  Level FlightAware ADS-B (YBLN / BQB)
Thu 04:50:51 AM 32.5939 -110.4702 101° East 455 524 37,000  Level FlightAware ADS-B (KMDQ)
Thu 04:51:13 AM 32.5818 -110.3980 101° East 453 521 37,000  Level FlightAware ADS-B (YBLN / BQB)
Thu 04:51:23 AM 32.5777 -110.3744 100° East 450 518 37,000  Level FlightAware ADS-B (VRMM / MLE)
Thu 04:51:50 AM 32.5667 -110.3093 100° East 450 518 37,000  Level FlightAware ADS-B (VRMM / MLE)
Thu 04:52:07 AM 32.5597 -110.2678 100° East 450 518 37,000  Level FlightAware ADS-B (VRMM / MLE)
Thu 04:52:23 AM 32.5530 -110.2280 100° East 450 518 37,000  Level FlightAware ADS-B (VRMM / MLE)
Thu 04:52:53 AM 32.5415 -110.1602 101° East 452 520 37,000  Level FlightAware ADS-B (YBLN / BQB)
Thu 04:52:58 AM 32.5389 -110.1450 100° East 450 518 37,000  Level FlightAware ADS-B (VRMM / MLE)
Thu 04:53:33 AM 32.5265 -110.0717 101° East 451 519 37,000  Level FlightAware ADS-B (KMDQ)
Thu 04:53:47 AM 32.5183 -110.0240 100° East 450 518 37,000  Level FlightAware ADS-B (KMDQ)
Thu 04:54:13 AM 32.5079 -109.9641 102° East 452 520 37,000  Level FlightAware ADS-B (YBLN / BQB)
Thu 04:54:33 AM 32.4993 -109.9145 101° East 451 519 37,000  Level FlightAware ADS-B (VRMM / MLE)
Thu 04:54:52 AM 32.4911 -109.8672 100° East 453 521 37,000  Level FlightAware ADS-B (VRMM / MLE)
Thu 04:55:10 AM 32.4836 -109.8234 101° East 453 521 37,000  Level FlightAware ADS-B (VRMM / MLE)
Thu 04:55:32 AM 32.4744 -109.7702 101° East 454 522 37,000  Level FlightAware ADS-B (VRMM / MLE)
Thu 04:55:52 AM 32.4659 -109.7215 101° East 453 521 37,000  Level FlightAware ADS-B (VRMM / MLE)
Thu 04:56:22 AM 32.4534 -109.6501 101° East 455 524 37,000  Level FlightAware ADS-B (VRMM / MLE)
Thu 04:56:54 AM 32.4394 -109.5695 102° East 456 525 37,000  Level FlightAware ADS-B (YBLN / BQB)
Thu 04:57:33 AM 32.4234 -109.4787 102° East 456 525 37,000  Level FlightAware ADS-B (KMDQ)
Thu 04:58:12 AM 32.4063 -109.3819 102° East 455 524 37,000  Level FlightAware ADS-B (KMDQ)
Thu 04:58:49 AM 32.3901 -109.2915 102° East 456 525 37,000  Level FlightAware ADS-B (KMDQ)
Thu 04:59:33 AM 32.3786 -109.2268 102° East 456 525 37,000  Level FlightAware ADS-B (KMDQ)
Thu 05:00:12 AM 32.3553 -109.0966 102° East 457 526 37,000  Level FlightAware ADS-B (KMDQ)
Thu 05:00:54 AM 32.3411 -109.0169 102° East 456 525 37,000  Level FlightAware ADS-B (YBLN / BQB)
Thu 05:01:32 AM 32.3189 -108.8937 102° East 455 524 37,000  Level FlightAware ADS-B (KMDQ)
Thu 05:02:06 AM 32.3094 -108.8417 102° East 458 527 37,000  Level FlightAware ADS-B (KMDQ)
Thu 05:02:54 AM 32.2826 -108.6950 102° East 460 529 37,000  Level FlightAware ADS-B (YBLN / BQB)
Thu 05:03:27 AM 32.2804 -108.6827 102° East 461 531 37,000  Level FlightAware ADS-B (YBLN / BQB)
Thu 05:04:23 AM 32.2461 -108.5069 102° East 457 526 37,000  Level Albuquerque Center
Thu 05:05:23 AM 32.2169 -108.3483 102° East 457 526 37,000  Level Albuquerque Center
Thu 05:06:24 AM 32.1903 -108.2006 102° East 460 529 37,000  Level Albuquerque Center
Thu 05:07:24 AM 32.1697 -108.0528 99° East 459 528 37,000 -50 Level Albuquerque Center
Thu 05:08:24 AM 32.1514 -107.9047 98° East 459 528 36,900  Descending Albuquerque Center
Thu 05:09:24 AM 32.1311 -107.7569 99° East 459 528 37,000 50 Climbing Albuquerque Center
Thu 05:10:25 AM 32.1125 -107.6092 98° East 459 528 37,000  Level Albuquerque Center
Thu 05:15:25 AM 32.0075 -106.8408 99° East 459 528 37,000  Level FlightAware ADS-B
Thu 05:16:23 AM 31.9873 -106.6994 99° East 458 527 37,000  Level FlightAware ADS-B
Thu 05:16:54 AM 31.9828 -106.6677 99° East 456 525 37,000  Level FlightAware ADS-B
Thu 05:17:36 AM 31.9585 -106.5184 101° East 455 524 37,000  Level FlightAware ADS-B
Thu 05:18:25 AM 31.9375 -106.3982 101° East 457 526 37,000  Level FlightAware ADS-B
Thu 05:18:56 AM 31.9245 -106.3241 101° East 458 527 37,000  Level FlightAware ADS-B
Thu 05:19:25 AM 31.9122 -106.2550 101° East 457 526 37,000  Level FlightAware ADS-B
Thu 05:19:54 AM 31.8993 -106.1833 101° East 458 527 37,000  Level FlightAware ADS-B
Thu 05:20:25 AM 31.8858 -106.1073 101° East 458 527 37,000  Level FlightAware ADS-B
Thu 05:20:54 AM 31.8733 -106.0372 101° East 457 526 37,000  Level FlightAware ADS-B
Thu 05:21:22 AM 31.8614 -105.9705 101° East 456 525 37,000  Level FlightAware ADS-B
Thu 05:21:51 AM 31.8491 -105.9015 101° East 459 528 37,000  Level FlightAware ADS-B
Thu 05:22:22 AM 31.8360 -105.8275 101° East 462 532 37,000  Level FlightAware ADS-B
Thu 05:23:25 AM 31.8087 -105.6683 101° East 463 533 37,000  Level FlightAware ADS-B
Thu 05:24:05 AM 31.7940 -105.5689 101° East 463 533 37,000  Level FlightAware ADS-B
Thu 05:24:40 AM 31.7743 -105.4866 107° East 465 535 37,000  Level FlightAware ADS-B
Thu 05:25:12 AM 31.7525 -105.4057 107° East 467 537 37,000  Level FlightAware ADS-B
Thu 05:25:33 AM 31.7416 -105.3659 107° East 466 536 37,000  Level FlightAware ADS-B
Thu 05:26:00 AM 31.7224 -105.2948 107° East 469 540 37,000  Level FlightAware ADS-B
Thu 05:27:04 AM 31.6845 -105.1560 107° East 470 541 37,000  Level FlightAware ADS-B
Thu 05:27:38 AM 31.6568 -105.0545 107° East 470 541 37,000  Level FlightAware ADS-B
Thu 05:28:37 AM 31.6167 -104.9083 107° East 475 547 37,000  Level FlightAware ADS-B
Thu 05:29:11 AM 31.5944 -104.8268 107° East 475 547 37,000  Level FlightAware ADS-B
Thu 05:29:40 AM 31.5745 -104.7546 107° East 477 549 37,000  Level FlightAware ADS-B
Thu 05:30:12 AM 31.5525 -104.6757 108° East 477 549 37,000  Level FlightAware ADS-B
Thu 05:30:42 AM 31.5324 -104.6036 107° East 477 549 37,000  Level FlightAware ADS-B
Thu 05:31:11 AM 31.5126 -104.5322 108° East 474 545 37,000  Level FlightAware ADS-B
Thu 05:32:10 AM 31.4720 -104.3871 108° East 472 543 37,000  Level FlightAware ADS-B
Thu 05:32:26 AM 31.4608 -104.3475 108° East 471 542 37,000  Level FlightAware ADS-B
Thu 05:33:37 AM 31.4366 -104.2611 108° East 469 540 37,000  Level FlightAware ADS-B
Thu 05:34:37 AM 31.3732 -104.0363 108° East 466 536 37,000  Level FlightAware ADS-B
Thu 05:35:02 AM 31.3559 -103.9760 108° East 465 535 37,000  Level FlightAware ADS-B
Thu 05:35:45 AM 31.3280 -103.8778 108° East 466 536 37,000  Level FlightAware ADS-B
Thu 05:36:10 AM 31.3097 -103.8134 108° East 465 535 37,000  Level FlightAware ADS-B
Thu 05:36:42 AM 31.2882 -103.7380 108° East 464 534 37,000  Level FlightAware ADS-B
Thu 05:37:14 AM 31.2663 -103.6617 108° East 465 535 37,000  Level FlightAware ADS-B
Thu 05:37:41 AM 31.2481 -103.5985 108° East 464 534 37,000  Level FlightAware ADS-B
Thu 05:37:50 AM 31.2427 -103.5798 108° East 464 534 37,000  Level FlightAware ADS-B
Thu 05:39:17 AM 31.1823 -103.3699 108° East 464 534 37,000  Level FlightAware ADS-B
Thu 05:39:44 AM 31.1650 -103.3103 108° East 465 535 37,000  Level FlightAware ADS-B
Thu 05:40:05 AM 31.1600 -103.2932 108° East 465 535 37,000  Level FlightAware ADS-B
Thu 05:44:36 AM 31.0131 -102.6004 98° East 468 539 37,000  Level FlightAware ADS-B
Thu 05:47:23 AM 30.9636 -102.1815 98° East 464 534 37,000  Level FlightAware ADS-B
Thu 05:50:12 AM 30.9130 -101.7647 98° East 464 534 37,000  Level FlightAware ADS-B
Thu 05:51:36 AM 30.8889 -101.5628 98° East 464 534 37,000  Level Houston Center
Thu 05:52:36 AM 30.8703 -101.4139 98° East 464 534 37,000  Level Houston Center
Thu 05:53:36 AM 30.8517 -101.2633 98° East 464 534 37,000 -50 Level Houston Center
Thu 05:54:37 AM 30.8336 -101.1125 98° East 466 536 36,900  Descending Houston Center
Thu 05:55:37 AM 30.8131 -100.9614 99° East 469 540 37,000 50 Climbing Houston Center
Thu 05:56:37 AM 30.7931 -100.8106 99° East 470 541 37,000 -50 Level Houston Center
Thu 05:57:37 AM 30.7728 -100.6603 99° East 470 541 36,900  Descending Houston Center
Thu 05:58:38 AM 30.7528 -100.5100 99° East 470 541 37,000 50 Climbing Houston Center
Thu 05:59:38 AM 30.7328 -100.3589 99° East 470 541 37,000  Level Houston Center
Thu 06:05:47 AM 30.6056 -99.4323 98° East 476 548 37,000  Level FlightAware ADS-B
Thu 06:06:09 AM 30.5988 -99.3820 98° East 476 548 37,000  Level FlightAware ADS-B
Thu 06:09:12 AM 30.5340 -98.9113 99° East 482 555 37,000  Level FlightAware ADS-B
Thu 06:09:24 AM 30.5307 -98.8877 99° East 483 556 37,000  Level FlightAware ADS-B
Thu 06:10:23 AM 30.5083 -98.7291 99° East 482 555 37,000  Level FlightAware ADS-B
Thu 06:11:12 AM 30.4908 -98.6049 99° East 482 555 37,000  Level FlightAware ADS-B
Thu 06:11:18 AM 30.4894 -98.5947 99° East 482 555 37,000  Level FlightAware ADS-B
Thu 06:11:42 AM 30.4800 -98.5284 99° East 483 556 37,000  Level FlightAware ADS-B
Thu 06:12:02 AM 30.4728 -98.4779 99° East 483 556 37,000  Level FlightAware ADS-B
Thu 06:12:30 AM 30.4624 -98.4061 99° East 483 556 37,000  Level FlightAware ADS-B
Thu 06:13:01 AM 30.4519 -98.3327 99° East 481 554 37,000  Level FlightAware ADS-B
Thu 06:13:04 AM 30.4500 -98.3197 99° East 482 555 37,000  Level FlightAware ADS-B
Thu 06:13:21 AM 30.4449 -98.2842 99° East 481 554 37,000  Level FlightAware ADS-B
Thu 06:13:34 AM 30.4391 -98.2436 99° East 481 554 37,000  Level FlightAware ADS-B
Thu 06:14:03 AM 30.4291 -98.1744 99° East 481 554 37,000  Level FlightAware ADS-B
Thu 06:14:05 AM 30.4276 -98.1645 99° East 482 555 37,000  Level FlightAware ADS-B
Thu 06:14:32 AM 30.4170 -98.0956 100° East 481 554 37,000  Level FlightAware ADS-B
Thu 06:14:35 AM 30.4157 -98.0877 101° East 481 554 37,000  Level FlightAware ADS-B
Thu 06:15:02 AM 30.4049 -98.0215 100° East 480 552 37,000  Level FlightAware ADS-B
Thu 06:15:05 AM 30.4032 -98.0114 101° East 480 552 37,000  Level FlightAware ADS-B
Thu 06:15:32 AM 30.3923 -97.9445 100° East 479 551 37,000  Level FlightAware ADS-B
Thu 06:16:00 AM 30.3805 -97.8726 101° East 479 551 37,000  Level FlightAware ADS-B
Thu 06:16:02 AM 30.3802 -97.8704 100° East 478 550 37,000  Level FlightAware ADS-B
Thu 06:16:08 AM 30.3777 -97.8554 101° East 493 567 37,000 -600 Level FlightAware ADS-B
Thu 06:16:12 AM 30.3759 -97.8443 100° East 475 547 36,900 -1,826 Descending FlightAware ADS-B
Thu 06:16:31 AM 30.3680 -97.7961 101° East 471 542 36,300 -2,129 Descending FlightAware ADS-B
Thu 06:16:43 AM 30.3637 -97.7694 100° East 471 542 35,800 -3,000 Descending FlightAware ADS-B
Thu 06:17:01 AM 30.3558 -97.7211 101° East 475 547 34,800 -3,200 Descending FlightAware ADS-B
Thu 06:17:13 AM 30.3513 -97.6937 100° East 477 549 34,200 -2,903 Descending FlightAware ADS-B
Thu 06:17:32 AM 30.3434 -97.6448 101° East 478 550 33,300 -2,600 Descending FlightAware ADS-B
Thu 06:17:43 AM 30.3393 -97.6190 100° East 475 547 32,900 -2,516 Descending FlightAware ADS-B
Thu 06:18:03 AM 30.3309 -97.5679 101° East 475 547 32,000 -2,690 Descending FlightAware ADS-B
Thu 06:18:12 AM 30.3272 -97.5456 100° East 473 544 31,600 -2,400 Descending FlightAware ADS-B
Thu 06:18:33 AM 30.3185 -97.4932 101° East 469 540 30,800 -2,200 Descending FlightAware ADS-B
Thu 06:18:42 AM 30.3149 -97.4716 100° East 467 537 30,500 -2,308 Descending FlightAware ADS-B
Thu 06:19:12 AM 30.3028 -97.3986 100° East 460 529 29,300 -2,400 Descending FlightAware ADS-B
Thu 06:19:42 AM 30.2909 -97.3264 100° East 453 521 28,100 -2,300 Descending FlightAware ADS-B
Thu 06:20:12 AM 30.2790 -97.2548 100° East 447 514 27,000 -2,211 Descending FlightAware ADS-B
Thu 06:20:20 AM 30.2771 -97.2436 101° East 445 512 26,700 -2,160 Descending FlightAware ADS-B
Thu 06:21:02 AM 30.2596 -97.1389 100° East 437 503 25,200 -2,167 Descending FlightAware ADS-B
Thu 06:21:32 AM 30.2482 -97.0714 101° East 433 498 24,100 -2,200 Descending FlightAware ADS-B
Thu 06:22:02 AM 30.2367 -97.0031 101° East 426 490 23,000 -2,200 Descending FlightAware ADS-B
Thu 06:22:32 AM 30.2254 -96.9364 101° East 421 484 21,900 -2,100 Descending FlightAware ADS-B
Thu 06:23:02 AM 30.2144 -96.8711 100° East 414 476 20,900 -2,100 Descending FlightAware ADS-B
Thu 06:23:32 AM 30.2035 -96.8055 100° East 403 464 19,800 -2,000 Descending FlightAware ADS-B
Thu 06:24:02 AM 30.1934 -96.7437 100° East 389 448 18,900 -1,900 Descending FlightAware ADS-B
Thu 06:24:32 AM 30.1831 -96.6839 101° East 375 432 17,900 -1,900 Descending FlightAware ADS-B
Thu 06:25:02 AM 30.1726 -96.6256 102° East 366 421 17,000 -1,900 Descending FlightAware ADS-B
Thu 06:25:32 AM 30.1615 -96.5690 102° East 365 420 16,000 -1,500 Descending FlightAware ADS-B
Thu 06:26:02 AM 30.1502 -96.5119 102° East 364 419 15,500 -1,000 Descending FlightAware ADS-B
Thu 06:26:32 AM 30.1396 -96.4546 101° East 366 421 15,000 -1,082 Descending FlightAware ADS-B
Thu 06:27:03 AM 30.1291 -96.3967 101° East 361 415 14,400 -1,377 Descending FlightAware ADS-B
Thu 06:27:33 AM 30.1187 -96.3407 102° East 355 409 13,600 -1,800 Descending FlightAware ADS-B
Thu 06:28:03 AM 30.1081 -96.2850 102° East 350 403 12,600 -1,831 Descending FlightAware ADS-B
Thu 06:28:32 AM 30.0982 -96.2322 102° East 345 397 11,800 -1,424 Descending FlightAware ADS-B
Thu 06:29:02 AM 30.0881 -96.1782 102° East 330 380 11,200 -1,647 Descending FlightAware ADS-B
Thu 06:29:23 AM 30.0814 -96.1429 101° East 332 382 10,400 -1,412 Descending FlightAware ADS-B
Thu 06:29:53 AM 30.0744 -96.1043 101° East 333 383 10,000 -652 Descending FlightAware ADS-B
Thu 06:30:09 AM 30.0681 -96.0710 103° East 293 337 9,900 -882 Descending FlightAware ADS-B
Thu 06:30:27 AM 30.0616 -96.0403 103° East 291 335 9,500 -1,455 Descending FlightAware ADS-B
Thu 06:30:42 AM 30.0569 -96.0180 102° East 291 335 9,100 -1,400 Descending FlightAware ADS-B
Thu 06:30:57 AM 30.0523 -95.9940 102° East 290 334 8,800 -1,200 Descending FlightAware ADS-B
Thu 06:31:12 AM 30.0481 -95.9715 101° East 289 333 8,500 -1,333 Descending FlightAware ADS-B
Thu 06:31:15 AM 30.0473 -95.9668 102° East 289 333 8,400 -1,313 Descending FlightAware ADS-B
Thu 06:31:44 AM 30.0395 -95.9258 102° East 289 333 7,800 -1,615 Descending FlightAware ADS-B
Thu 06:32:07 AM 30.0332 -95.8904 101° East 287 330 7,000 -2,368 Descending FlightAware ADS-B
Thu 06:32:22 AM 30.0289 -95.8669 102° East 297 342 6,300 -2,200 Descending FlightAware ADS-B
Thu 06:32:37 AM 30.0242 -95.8428 102° East 295 339 5,900 -1,400 Descending FlightAware ADS-B
Thu 06:32:52 AM 30.0198 -95.8211 103° East 289 333 5,600 -1,200 Descending FlightAware ADS-B
Thu 06:33:12 AM 30.0140 -95.7919 102° East 280 322 5,200 -923 Descending FlightAware ADS-B
Thu 06:33:31 AM 30.0080 -95.7635 103° East 269 310 5,000 -333 Descending FlightAware ADS-B
Thu 06:33:48 AM 30.0033 -95.7413 103° East 257 296 5,000  Level FlightAware ADS-B
Thu 06:34:07 AM 29.9985 -95.7165 102° East 240 276 5,000  Level FlightAware ADS-B
Thu 06:34:27 AM 29.9939 -95.6913 100° East 236 272 5,000  Level FlightAware ADS-B
Thu 06:34:33 AM 29.9931 -95.6847 101° East 236 272 5,000  Level FlightAware ADS-B
Thu 06:34:41 AM 29.9924 -95.6752 93° East 237 273 5,000 -240 Level FlightAware ADS-B
Thu 06:34:58 AM 29.9922 -95.6523 89° East 238 274 4,900 -545 Descending FlightAware ADS-B
Thu 06:35:03 AM 29.9922 -95.6516 88° East 235 270 4,800 -923 Descending FlightAware ADS-B
Thu 06:35:11 AM 29.9924 -95.6434 87° East 234 269 4,700 -1,412 Descending FlightAware ADS-B
Thu 06:35:37 AM 29.9932 -95.6042 89° East 230 265 4,000 -1,317 Descending FlightAware ADS-B
Thu 06:35:52 AM 29.9932 -95.5858 90° East 218 251 3,800 -800 Descending FlightAware ADS-B
Thu 06:36:07 AM 29.9931 -95.5682 90° East 213 245 3,600 -1,200 Descending FlightAware ADS-B
Thu 06:36:22 AM 29.9930 -95.5523 90° East 212 244 3,200 -1,200 Descending FlightAware ADS-B
Thu 06:36:37 AM 29.9930 -95.5351 89° East 209 241 3,000 -1,000 Descending FlightAware ADS-B
Thu 06:36:52 AM 29.9931 -95.5181 89° East 205 236 2,700 -1,000 Descending FlightAware ADS-B
Thu 06:37:07 AM 29.9932 -95.5023 89° East 201 231 2,500 -1,000 Descending FlightAware ADS-B
Thu 06:37:22 AM 29.9933 -95.4862 89° East 188 216 2,200 -1,161 Descending FlightAware ADS-B
Thu 06:37:38 AM 29.9934 -95.4717 90° East 179 206 1,900 -800 Descending FlightAware ADS-B
Thu 06:37:52 AM 29.9934 -95.4592 89° East 168 193 1,800 -621 Descending FlightAware ADS-B
Thu 06:38:07 AM 29.9935 -95.4443 89° East 163 188 1,600 -1,000 Descending FlightAware ADS-B
Thu 06:38:22 AM 29.9934 -95.4316 91° East 162 186 1,300 -1,000 Descending FlightAware ADS-B
Thu 06:38:37 AM 29.9933 -95.4190 90° East 161 185 1,100 -774 Descending FlightAware ADS-B
Thu 06:38:53 AM 29.9933 -95.4061 90° East 160 184 900 -800 Descending FlightAware ADS-B
Thu 06:39:07 AM 29.9933 -95.3939 89° East 159 183 700 -828 Descending FlightAware ADS-B
Thu 06:39:22 AM 29.9934 -95.3810 89° East 156 180 500 -774 Descending FlightAware ADS-B
Thu 06:39:38 AM 29.9934 -95.3682 89° East 154 177 300 -800 Descending FlightAware ADS-B
Thu 06:39:52 AM 29.9934 -95.3567 90° East 154 177 100 -857 Descending FlightAware ADS-B

Login

Don't have an account? Register now (free) for customized features, flight alerts, and more!